createdAt,value
2018-01-24T00:01:43.129Z,1.11
2018-01-24T00:04:10.696Z,1.03
2018-01-24T00:06:38.320Z,1.06
2018-01-24T00:09:05.932Z,1.06
2018-01-24T00:11:33.531Z,1.06
2018-01-24T00:14:01.148Z,1.06
2018-01-24T00:16:28.720Z,1.05
2018-01-24T00:18:56.372Z,1.00
2018-01-24T00:21:23.988Z,0.91
2018-01-24T00:23:51.566Z,0.88
2018-01-24T00:26:19.141Z,0.91
2018-01-24T00:28:46.816Z,0.86
2018-01-24T00:31:14.396Z,0.94
2018-01-24T00:33:41.976Z,0.96
2018-01-24T00:36:09.597Z,0.91
2018-01-24T00:38:37.170Z,0.85
2018-01-24T00:41:04.749Z,0.74
2018-01-24T00:43:32.391Z,0.74
2018-01-24T00:45:59.965Z,0.66
2018-01-24T00:48:27.525Z,0.64
2018-01-24T00:50:55.246Z,0.65
2018-01-24T00:53:22.838Z,0.64
2018-01-24T00:55:50.416Z,0.51
2018-01-24T00:58:18.042Z,0.47
2018-01-24T01:00:45.634Z,0.53
2018-01-24T01:03:13.216Z,0.49
2018-01-24T01:05:40.815Z,0.44
2018-01-24T01:08:08.397Z,0.40
2018-01-24T01:10:35.962Z,0.32
2018-01-24T01:13:03.581Z,0.33
2018-01-24T01:15:31.151Z,0.34
2018-01-24T01:17:58.730Z,0.26
2018-01-24T01:20:26.354Z,0.22
2018-01-24T01:22:53.929Z,0.29
2018-01-24T01:25:21.498Z,0.25
2018-01-24T01:27:49.200Z,0.23
2018-01-24T01:30:16.780Z,0.21
2018-01-24T01:32:44.349Z,0.21
2018-01-24T01:35:11.961Z,0.23
2018-01-24T01:37:39.518Z,0.24
2018-01-24T01:40:07.080Z,0.12
2018-01-24T01:42:34.689Z,0.16
2018-01-24T01:45:02.264Z,0.07
2018-01-24T01:47:29.853Z,0.06
2018-01-24T01:49:57.520Z,-0.02
2018-01-24T01:52:25.140Z,0.09
2018-01-24T01:54:52.754Z,0.06
2018-01-24T01:57:20.402Z,-0.03
2018-01-24T01:59:48.017Z,-0.02
2018-01-24T02:02:15.604Z,0.00
2018-01-24T02:04:43.292Z,-0.09
2018-01-24T02:07:11.051Z,-0.09
2018-01-24T02:09:38.633Z,-0.11
2018-01-24T02:12:06.252Z,-0.24
2018-01-24T02:14:33.835Z,-0.17
2018-01-24T02:17:01.411Z,-0.19
2018-01-24T02:19:29.094Z,-0.09
2018-01-24T02:21:56.677Z,-0.06
2018-01-24T02:24:24.286Z,-0.18
2018-01-24T02:26:51.960Z,-0.13
2018-01-24T02:29:19.542Z,-0.16
2018-01-24T02:31:47.162Z,-0.19
2018-01-24T02:34:14.772Z,-0.24
2018-01-24T02:36:42.343Z,-0.25
2018-01-24T02:39:15.989Z,-0.35
2018-01-24T02:41:43.559Z,-0.39
2018-01-24T02:44:11.131Z,-0.46
2018-01-24T02:46:38.750Z,-0.42
2018-01-24T02:49:06.711Z,-0.50
2018-01-24T02:51:34.336Z,-0.46
2018-01-24T02:54:01.957Z,-0.55
2018-01-24T02:56:29.523Z,-0.58
2018-01-24T02:58:57.087Z,-0.58
2018-01-24T03:01:24.691Z,-0.68
2018-01-24T03:03:52.275Z,-0.59
2018-01-24T03:06:19.860Z,-0.64
2018-01-24T03:08:47.462Z,-0.66
2018-01-24T03:11:15.027Z,-0.78
2018-01-24T03:13:42.852Z,-0.74
2018-01-24T03:16:10.486Z,-0.70
2018-01-24T03:18:38.056Z,-0.75
2018-01-24T03:21:05.824Z,-0.72
2018-01-24T03:23:33.428Z,-0.72
2018-01-24T03:26:01.013Z,-0.65
2018-01-24T03:28:28.597Z,-0.65
2018-01-24T03:30:56.210Z,-0.55
2018-01-24T03:33:23.772Z,-0.49
2018-01-24T03:35:51.355Z,-0.52
2018-01-24T03:38:19.265Z,-0.44
2018-01-24T03:40:46.844Z,-0.51
2018-01-24T03:43:14.419Z,-0.53
2018-01-24T03:45:42.019Z,-0.55
2018-01-24T03:48:09.591Z,-0.47
2018-01-24T03:50:37.186Z,-0.53
2018-01-24T03:53:04.812Z,-0.57
2018-01-24T03:55:32.395Z,-0.52
2018-01-24T03:57:59.999Z,-0.53
2018-01-24T04:00:27.628Z,-0.61
2018-01-24T04:02:55.212Z,-0.73
2018-01-24T04:05:22.801Z,-0.63
2018-01-24T04:07:50.424Z,-0.64
2018-01-24T04:10:17.993Z,-0.82
2018-01-24T04:12:45.555Z,-0.85
2018-01-24T04:15:13.167Z,-0.87
2018-01-24T04:17:40.754Z,-0.85
2018-01-24T04:20:08.396Z,-0.89
2018-01-24T04:22:36.025Z,-0.90
2018-01-24T04:25:03.612Z,-0.92
2018-01-24T04:27:31.184Z,-0.90
2018-01-24T04:29:58.818Z,-0.83
2018-01-24T04:32:26.378Z,-0.78
2018-01-24T04:34:53.950Z,-0.79
2018-01-24T04:37:21.642Z,-0.79
2018-01-24T04:39:49.283Z,-0.85
2018-01-24T04:42:16.875Z,-0.92
2018-01-24T04:44:44.533Z,-0.96
2018-01-24T04:47:12.139Z,-1.10
2018-01-24T04:49:39.757Z,-1.10
2018-01-24T04:52:07.508Z,-1.13
2018-01-24T04:54:35.105Z,-1.12
2018-01-24T04:57:02.794Z,-1.11
2018-01-24T04:59:30.445Z,-1.18
2018-01-24T05:01:58.057Z,-1.23
2018-01-24T05:04:25.672Z,-1.27
2018-01-24T05:06:53.331Z,-1.31
2018-01-24T05:09:20.944Z,-1.34
2018-01-24T05:11:48.579Z,-1.40
2018-01-24T05:14:16.258Z,-1.38
2018-01-24T05:16:43.879Z,-1.43
2018-01-24T05:19:11.516Z,-1.42
2018-01-24T05:21:40.643Z,-1.44
2018-01-24T05:24:08.270Z,-1.45
2018-01-24T05:26:35.857Z,-1.45
2018-01-24T05:29:03.459Z,-1.44
2018-01-24T05:31:31.031Z,-1.44
2018-01-24T05:33:58.598Z,-1.40
2018-01-24T05:36:26.214Z,-1.32
2018-01-24T05:38:53.801Z,-1.35
2018-01-24T05:41:21.382Z,-1.44
2018-01-24T05:43:49.013Z,-1.45
2018-01-24T05:46:16.598Z,-1.39
2018-01-24T05:48:44.197Z,-1.36
2018-01-24T05:51:11.816Z,-1.31
2018-01-24T05:53:39.406Z,-1.28
2018-01-24T05:56:06.975Z,-1.20
2018-01-24T05:58:34.617Z,-1.28
2018-01-24T06:01:02.179Z,-1.17
2018-01-24T06:03:29.759Z,-1.17
2018-01-24T06:05:57.375Z,-1.04
2018-01-24T06:08:24.965Z,-1.02
2018-01-24T06:10:52.542Z,-1.06
2018-01-24T06:13:20.169Z,-1.13
2018-01-24T06:15:47.756Z,-1.18
2018-01-24T06:18:15.400Z,-1.06
2018-01-24T06:20:43.007Z,-1.08
2018-01-24T06:23:10.583Z,-1.13
2018-01-24T06:25:38.163Z,-1.03
2018-01-24T06:28:05.775Z,-1.07
2018-01-24T06:30:33.354Z,-0.93
2018-01-24T06:33:00.927Z,-0.93
2018-01-24T06:35:28.596Z,-0.84
2018-01-24T06:37:56.183Z,-0.77
2018-01-24T06:40:23.773Z,-0.76
2018-01-24T06:42:51.602Z,-0.70
2018-01-24T06:45:19.180Z,-0.67
2018-01-24T06:47:46.761Z,-0.70
2018-01-24T06:50:14.401Z,-0.63
2018-01-24T06:52:41.987Z,-0.59
2018-01-24T06:55:09.577Z,-0.60
2018-01-24T06:57:37.241Z,-0.48
2018-01-24T07:00:04.913Z,-0.35
2018-01-24T07:02:32.589Z,-0.23
2018-01-24T07:05:00.235Z,-0.22
2018-01-24T07:07:27.818Z,-0.35
2018-01-24T07:09:55.387Z,-0.28
2018-01-24T07:12:34.688Z,-0.15
2018-01-24T07:15:02.272Z,-0.05
2018-01-24T07:17:30.172Z,0.11
2018-01-24T07:19:58.716Z,0.17
2018-01-24T07:22:26.972Z,0.22
2018-01-24T07:24:54.539Z,0.67
2018-01-24T07:27:22.193Z,1.06
2018-01-24T07:29:49.954Z,1.34
2018-01-24T07:32:17.710Z,1.61
2018-01-24T07:34:45.384Z,1.71
2018-01-24T07:37:12.965Z,1.75
2018-01-24T07:39:40.590Z,1.96
2018-01-24T07:42:08.219Z,2.12
2018-01-24T07:44:36.044Z,1.91
2018-01-24T07:47:03.618Z,1.56
2018-01-24T07:49:31.342Z,1.46
2018-01-24T07:51:58.976Z,1.21
2018-01-24T07:54:26.672Z,1.07
2018-01-24T07:56:54.488Z,1.26
2018-01-24T07:59:22.124Z,1.50
2018-01-24T08:01:49.755Z,1.74
2018-01-24T08:04:17.422Z,1.86
2018-01-24T08:06:45.049Z,1.79
2018-01-24T08:09:12.680Z,1.74
2018-01-24T08:11:40.354Z,1.91
2018-01-24T08:14:07.963Z,2.04
2018-01-24T08:16:35.596Z,2.17
2018-01-24T08:19:03.239Z,2.12
2018-01-24T08:21:30.868Z,2.15
2018-01-24T08:23:58.551Z,1.94
2018-01-24T08:26:26.166Z,2.21
2018-01-24T08:28:53.756Z,2.57
2018-01-24T08:31:21.502Z,2.76
2018-01-24T08:33:49.123Z,2.99
2018-01-24T08:36:16.711Z,2.99
2018-01-24T08:38:44.300Z,2.90
2018-01-24T08:41:11.919Z,3.69
2018-01-24T08:43:39.620Z,4.21
2018-01-24T08:46:07.200Z,4.85
2018-01-24T08:48:35.732Z,4.82
2018-01-24T08:51:03.311Z,4.74
2018-01-24T08:53:30.889Z,5.04
2018-01-24T08:55:58.544Z,4.80
2018-01-24T08:58:26.124Z,5.59
2018-01-24T09:00:53.714Z,6.53
2018-01-24T09:03:21.338Z,7.34
2018-01-24T09:05:48.925Z,6.93
2018-01-24T09:08:16.499Z,7.26
2018-01-24T09:10:44.152Z,8.42
2018-01-24T09:13:11.809Z,9.00
2018-01-24T09:15:39.432Z,9.51
2018-01-24T09:18:07.071Z,10.07
2018-01-24T09:20:34.685Z,9.60
2018-01-24T09:23:02.265Z,8.90
2018-01-24T09:25:29.919Z,8.56
2018-01-24T09:27:57.533Z,7.00
2018-01-24T09:30:25.153Z,6.68
2018-01-24T09:32:53.319Z,6.87
2018-01-24T09:35:20.941Z,6.92
2018-01-24T09:37:48.558Z,6.79
2018-01-24T09:40:16.185Z,7.29
2018-01-24T09:42:43.735Z,7.81
2018-01-24T09:45:11.300Z,7.54
2018-01-24T09:47:38.939Z,8.32
2018-01-24T09:50:06.553Z,8.12
2018-01-24T09:52:34.103Z,8.58
2018-01-24T09:55:01.747Z,9.04
2018-01-24T09:57:29.321Z,9.69
2018-01-24T09:59:56.976Z,10.51
2018-01-24T10:02:24.580Z,10.14
2018-01-24T10:04:53.730Z,9.22
2018-01-24T10:07:21.329Z,8.27
2018-01-24T10:09:48.936Z,8.59
2018-01-24T10:12:16.504Z,9.11
2018-01-24T10:14:44.117Z,9.25
2018-01-24T10:17:11.740Z,9.82
2018-01-24T10:19:39.333Z,10.42
2018-01-24T10:22:06.905Z,10.72
2018-01-24T10:24:34.517Z,9.91
2018-01-24T10:27:02.131Z,9.79
2018-01-24T10:29:29.733Z,10.11
2018-01-24T10:31:57.392Z,10.81
2018-01-24T10:34:25.067Z,9.90
2018-01-24T10:36:52.717Z,8.93
2018-01-24T10:39:20.493Z,9.41
2018-01-24T10:41:48.227Z,8.06
2018-01-24T10:44:15.984Z,9.89
2018-01-24T10:46:43.614Z,10.68
2018-01-24T10:49:11.231Z,11.69
2018-01-24T10:51:38.862Z,11.60
2018-01-24T10:54:06.501Z,10.94
2018-01-24T10:56:34.116Z,10.67
2018-01-24T10:59:01.700Z,10.75
2018-01-24T11:01:29.302Z,10.03
2018-01-24T11:03:56.864Z,10.10
2018-01-24T11:06:24.441Z,10.01
2018-01-24T11:08:52.053Z,9.93
2018-01-24T11:11:19.670Z,10.58
2018-01-24T11:13:47.330Z,11.23
2018-01-24T11:16:14.946Z,8.54
2018-01-24T11:18:42.497Z,7.19
2018-01-24T11:21:10.055Z,9.09
2018-01-24T11:23:37.674Z,10.06
2018-01-24T11:26:05.289Z,10.89
2018-01-24T11:28:32.943Z,9.76
2018-01-24T11:31:00.542Z,9.96
2018-01-24T11:33:28.149Z,11.37
2018-01-24T11:35:55.751Z,10.16
2018-01-24T11:38:23.393Z,11.85
2018-01-24T11:40:51.066Z,10.64
2018-01-24T11:43:18.671Z,11.98
2018-01-24T11:45:46.290Z,11.85
2018-01-24T11:48:13.860Z,12.21
2018-01-24T11:50:41.452Z,9.61
2018-01-24T11:53:09.058Z,10.21
2018-01-24T11:55:36.643Z,11.14
2018-01-24T11:58:04.230Z,11.07
2018-01-24T12:00:31.859Z,10.90
2018-01-24T12:02:59.424Z,10.29
2018-01-24T12:05:27.008Z,10.80
2018-01-24T12:07:54.662Z,10.89
2018-01-24T12:10:22.239Z,10.38
2018-01-24T12:12:49.839Z,10.55
2018-01-24T12:15:17.497Z,10.90
2018-01-24T12:17:45.070Z,8.60
2018-01-24T12:20:12.612Z,8.96
2018-01-24T12:22:40.256Z,10.73
2018-01-24T12:25:07.873Z,10.81
2018-01-24T12:27:35.452Z,11.44
2018-01-24T12:30:03.228Z,11.89
2018-01-24T12:32:30.805Z,12.59
2018-01-24T12:34:58.387Z,11.91
2018-01-24T12:37:26.024Z,11.86
2018-01-24T12:39:53.678Z,10.99
2018-01-24T12:42:21.232Z,12.47
2018-01-24T12:44:48.845Z,11.23
2018-01-24T12:47:16.456Z,11.06
2018-01-24T12:49:44.046Z,11.20
2018-01-24T12:52:11.652Z,11.13
2018-01-24T12:54:39.255Z,10.00
2018-01-24T12:57:06.829Z,9.81
2018-01-24T12:59:34.451Z,10.69
2018-01-24T13:02:02.038Z,11.15
2018-01-24T13:04:29.635Z,9.85
2018-01-24T13:06:57.259Z,10.70
2018-01-24T13:09:24.839Z,10.42
2018-01-24T13:11:52.460Z,11.01
2018-01-24T13:14:20.077Z,10.27
2018-01-24T13:16:47.661Z,9.40
2018-01-24T13:19:15.241Z,9.09
2018-01-24T13:21:42.883Z,9.82
2018-01-24T13:24:10.502Z,10.25
2018-01-24T13:26:38.207Z,10.55
2018-01-24T13:29:05.904Z,9.22
2018-01-24T13:31:33.550Z,8.33
2018-01-24T13:34:01.234Z,8.02
2018-01-24T13:36:28.896Z,7.60
2018-01-24T13:38:56.488Z,6.49
2018-01-24T13:41:24.096Z,6.56
2018-01-24T13:43:51.721Z,7.93
2018-01-24T13:46:19.301Z,8.00
2018-01-24T13:48:46.911Z,7.66
2018-01-24T13:51:14.554Z,8.81
2018-01-24T13:53:42.161Z,8.56
2018-01-24T13:56:09.773Z,8.74
2018-01-24T13:58:37.412Z,7.61
2018-01-24T14:01:05.324Z,7.88
2018-01-24T14:03:32.896Z,8.02
2018-01-24T14:06:00.577Z,7.74
2018-01-24T14:08:29.754Z,7.30
2018-01-24T14:10:57.331Z,7.81
2018-01-24T14:13:24.931Z,7.32
2018-01-24T14:15:52.567Z,7.49
2018-01-24T14:18:20.179Z,7.66
2018-01-24T14:20:47.791Z,7.49
2018-01-24T14:23:15.356Z,7.34
2018-01-24T14:25:42.936Z,5.86
2018-01-24T14:28:10.545Z,4.56
2018-01-24T14:30:38.105Z,4.16
2018-01-24T14:33:05.815Z,3.54
2018-01-24T14:35:33.462Z,2.99
2018-01-24T14:38:01.046Z,2.54
2018-01-24T14:40:28.619Z,1.62
2018-01-24T14:42:56.215Z,1.52
2018-01-24T14:45:23.786Z,1.36
2018-01-24T14:47:57.017Z,1.05
2018-01-24T14:50:24.609Z,0.89
2018-01-24T14:52:52.295Z,0.77
2018-01-24T14:55:19.899Z,0.67
2018-01-24T14:57:47.466Z,0.57
2018-01-24T15:00:15.053Z,0.46
2018-01-24T15:02:42.665Z,0.32
2018-01-24T15:05:10.261Z,0.23
2018-01-24T15:07:38.010Z,0.11
2018-01-24T15:10:06.225Z,0.04
2018-01-24T15:12:34.665Z,-0.06
2018-01-24T15:15:02.362Z,-0.27
2018-01-24T15:17:30.672Z,-0.30
2018-01-24T15:19:59.083Z,-0.39
2018-01-24T15:22:27.766Z,-0.42
2018-01-24T15:24:55.529Z,-0.52
2018-01-24T15:27:24.415Z,-0.57
2018-01-24T15:29:53.421Z,-0.67
2018-01-24T15:32:22.472Z,-0.74
2018-01-24T15:34:50.177Z,-0.82
2018-01-24T15:37:17.768Z,-0.88
2018-01-24T15:39:45.344Z,-0.98
2018-01-24T15:42:12.959Z,-1.11
2018-01-24T15:44:40.547Z,-1.21
2018-01-24T15:47:08.195Z,-1.21
2018-01-24T15:49:35.809Z,-1.21
2018-01-24T15:52:03.384Z,-1.40
2018-01-24T15:54:30.968Z,-1.43
2018-01-24T15:56:58.577Z,-1.47
2018-01-24T15:59:26.157Z,-1.56
2018-01-24T16:01:53.729Z,-1.56
2018-01-24T16:04:21.425Z,-1.52
2018-01-24T16:06:48.989Z,-1.55
2018-01-24T16:09:16.555Z,-1.58
2018-01-24T16:11:44.355Z,-1.67
2018-01-24T16:14:11.918Z,-1.68
2018-01-24T16:16:39.509Z,-1.73
2018-01-24T16:19:07.176Z,-1.82
2018-01-24T16:21:34.733Z,-1.76
2018-01-24T16:24:02.310Z,-1.76
2018-01-24T16:26:30.039Z,-1.71
2018-01-24T16:28:57.943Z,-1.86
2018-01-24T16:31:25.514Z,-1.88
2018-01-24T16:33:53.144Z,-1.73
2018-01-24T16:36:20.756Z,-1.94
2018-01-24T16:38:48.323Z,-1.79
2018-01-24T16:41:15.947Z,-1.94
2018-01-24T16:43:43.510Z,-2.09
2018-01-24T16:46:11.104Z,-2.17
2018-01-24T16:48:38.737Z,-2.18
2018-01-24T16:51:06.325Z,-2.35
2018-01-24T16:53:33.957Z,-2.40
2018-01-24T16:56:01.569Z,-2.51
2018-01-24T16:58:29.659Z,-2.55
2018-01-24T17:00:57.245Z,-2.54
2018-01-24T17:03:24.841Z,-2.61
2018-01-24T17:05:52.467Z,-2.76
2018-01-24T17:08:20.082Z,-2.77
2018-01-24T17:10:47.715Z,-2.83
2018-01-24T17:13:15.297Z,-2.91
2018-01-24T17:15:43.780Z,-2.96
2018-01-24T17:18:11.387Z,-2.99
2018-01-24T17:20:38.974Z,-3.07
2018-01-24T17:23:06.631Z,-3.09
2018-01-24T17:25:34.284Z,-3.12
2018-01-24T17:28:01.884Z,-3.19
2018-01-24T17:30:29.486Z,-3.21
2018-01-24T17:32:57.043Z,-3.24
2018-01-24T17:35:24.692Z,-3.30
2018-01-24T17:37:52.280Z,-3.35
2018-01-24T17:40:20.769Z,-3.43
2018-01-24T17:42:48.329Z,-3.47
2018-01-24T17:45:15.948Z,-3.49
2018-01-24T17:47:43.525Z,-3.53
2018-01-24T17:50:11.108Z,-3.64
2018-01-24T17:52:38.723Z,-3.66
2018-01-24T17:55:06.321Z,-3.74
2018-01-24T17:57:33.880Z,-3.71
2018-01-24T18:00:01.512Z,-3.74
2018-01-24T18:02:29.079Z,-3.93
2018-01-24T18:04:56.649Z,-3.88
2018-01-24T18:07:24.244Z,-3.89
2018-01-24T18:09:51.801Z,-3.90
2018-01-24T18:12:19.373Z,-3.98
2018-01-24T18:14:46.987Z,-4.00
2018-01-24T18:17:14.547Z,-4.05
2018-01-24T18:19:42.124Z,-4.12
2018-01-24T18:22:09.733Z,-4.27
2018-01-24T18:24:37.295Z,-4.30
2018-01-24T18:27:04.882Z,-4.41
2018-01-24T18:29:32.489Z,-4.33
2018-01-24T18:32:00.064Z,-4.29
2018-01-24T18:34:27.641Z,-4.33
2018-01-24T18:36:55.233Z,-4.42
2018-01-24T18:39:22.877Z,-4.45
2018-01-24T18:41:50.458Z,-4.63
2018-01-24T18:44:18.056Z,-4.59
2018-01-24T18:46:45.613Z,-4.61
2018-01-24T18:49:13.181Z,-4.60
2018-01-24T18:51:40.825Z,-4.58
2018-01-24T18:54:08.441Z,-4.47
2018-01-24T18:56:36.023Z,-4.69
2018-01-24T18:59:03.625Z,-4.52
2018-01-24T19:01:31.224Z,-4.56
2018-01-24T19:03:58.842Z,-4.57
2018-01-24T19:06:26.466Z,-4.61
2018-01-24T19:08:54.093Z,-4.67
2018-01-24T19:11:21.649Z,-4.76
2018-01-24T19:13:49.266Z,-4.79
2018-01-24T19:16:16.827Z,-4.88
2018-01-24T19:18:44.398Z,-4.92
2018-01-24T19:21:12.015Z,-4.92
2018-01-24T19:23:39.597Z,-4.91
2018-01-24T19:26:07.291Z,-5.12
2018-01-24T19:28:34.915Z,-5.14
2018-01-24T19:31:02.482Z,-5.21
2018-01-24T19:33:30.106Z,-5.22
2018-01-24T19:35:57.746Z,-5.27
2018-01-24T19:38:25.352Z,-5.36
2018-01-24T19:40:52.960Z,-5.35
2018-01-24T19:43:20.606Z,-5.40
2018-01-24T19:45:48.176Z,-5.40
2018-01-24T19:48:15.789Z,-5.46
2018-01-24T19:50:43.349Z,-5.47
2018-01-24T19:53:10.954Z,-5.46
2018-01-24T19:55:38.568Z,-5.50
2018-01-24T19:58:06.128Z,-5.54
2018-01-24T20:00:33.692Z,-5.53
2018-01-24T20:03:01.282Z,-5.65
2018-01-24T20:05:28.861Z,-5.67
2018-01-24T20:07:56.734Z,-5.69
2018-01-24T20:10:24.325Z,-5.67
2018-01-24T20:12:51.965Z,-5.70
2018-01-24T20:15:19.554Z,-5.73
2018-01-24T20:17:47.193Z,-5.80
2018-01-24T20:20:14.768Z,-5.79
2018-01-24T20:22:42.333Z,-5.90
2018-01-24T20:25:09.949Z,-5.86
2018-01-24T20:27:37.526Z,-5.94
2018-01-24T20:30:05.094Z,-6.03
2018-01-24T20:32:32.714Z,-5.99
2018-01-24T20:35:00.295Z,-5.95
2018-01-24T20:37:27.872Z,-6.02
2018-01-24T20:39:55.484Z,-6.06
2018-01-24T20:42:23.042Z,-6.12
2018-01-24T20:44:50.606Z,-6.07
2018-01-24T20:47:18.226Z,-6.05
2018-01-24T20:49:45.787Z,-5.99
2018-01-24T20:52:13.350Z,-6.01
2018-01-24T20:54:40.952Z,-6.05
2018-01-24T20:57:08.528Z,-6.11
2018-01-24T20:59:36.084Z,-6.12
2018-01-24T21:02:03.681Z,-6.13
2018-01-24T21:04:31.260Z,-6.09
2018-01-24T21:06:58.829Z,-6.16
2018-01-24T21:09:26.407Z,-6.22
2018-01-24T21:11:53.968Z,-6.25
2018-01-24T21:14:21.521Z,-6.26
2018-01-24T21:16:49.156Z,-6.27
2018-01-24T21:19:16.725Z,-6.26
2018-01-24T21:21:44.277Z,-6.26
2018-01-24T21:24:12.470Z,-6.33
2018-01-24T21:26:40.056Z,-6.35
2018-01-24T21:29:28.996Z,-6.39
2018-01-24T21:35:08.137Z,-6.48
2018-01-24T21:37:35.714Z,-6.49
2018-01-24T21:40:03.323Z,-6.53
2018-01-24T21:42:30.932Z,-6.54
2018-01-24T21:44:58.500Z,-6.54
2018-01-24T21:47:26.104Z,-6.56
2018-01-24T21:49:53.700Z,-6.59
2018-01-24T21:52:21.271Z,-6.60
2018-01-24T21:54:48.883Z,-6.68
2018-01-24T21:57:16.482Z,-6.65
2018-01-24T21:59:44.047Z,-6.69
2018-01-24T22:02:11.616Z,-6.67
2018-01-24T22:04:39.216Z,-6.72
2018-01-24T22:07:06.797Z,-6.79
2018-01-24T22:09:34.402Z,-6.89
2018-01-24T22:12:01.987Z,-6.89
2018-01-24T22:14:29.544Z,-6.98
2018-01-24T22:16:57.096Z,-6.95
2018-01-24T22:19:24.708Z,-6.97
2018-01-24T22:21:52.285Z,-7.07
2018-01-24T22:24:19.867Z,-7.11
2018-01-24T22:26:47.520Z,-7.14
2018-01-24T22:29:15.071Z,-7.09
2018-01-24T22:31:42.703Z,-7.10
2018-01-24T22:34:10.322Z,-7.13
2018-01-24T22:36:37.929Z,-7.11
2018-01-24T22:39:05.534Z,-7.14
2018-01-24T22:41:33.144Z,-7.21
2018-01-24T22:44:00.707Z,-7.22
2018-01-24T22:46:28.304Z,-7.29
2018-01-24T22:48:55.903Z,-7.27
2018-01-24T22:51:25.281Z,-7.33
2018-01-24T22:53:52.855Z,-7.35
2018-01-24T22:56:20.482Z,-7.38
2018-01-24T22:58:48.084Z,-7.42
2018-01-24T23:01:15.644Z,-7.38
2018-01-24T23:03:43.226Z,-7.43
2018-01-24T23:06:10.857Z,-7.42
2018-01-24T23:08:38.415Z,-7.47
2018-01-24T23:11:06.019Z,-7.46
2018-01-24T23:13:33.576Z,-7.55
2018-01-24T23:16:01.186Z,-7.54
2018-01-24T23:18:28.793Z,-7.43
2018-01-24T23:20:56.359Z,-7.38
2018-01-24T23:23:23.917Z,-7.40
2018-01-24T23:25:51.521Z,-7.36
2018-01-24T23:28:19.088Z,-7.46
2018-01-24T23:30:46.658Z,-7.41
2018-01-24T23:33:14.302Z,-7.50
2018-01-24T23:35:41.879Z,-7.50
2018-01-24T23:38:09.435Z,-7.49
2018-01-24T23:40:37.034Z,-7.60
2018-01-24T23:43:04.601Z,-7.53
2018-01-24T23:45:32.177Z,-7.62
2018-01-24T23:47:59.783Z,-7.59
2018-01-24T23:50:27.375Z,-7.56
2018-01-24T23:52:55.410Z,-7.61
2018-01-24T23:55:23.017Z,-7.60
2018-01-24T23:57:50.564Z,-7.61
